Ada, Ohio
Current Conditions -  °F | °C
As of 7:53 AM on Saturday 25 Oct 2014 (Local Time) from KAOH Reporting Station
Overcast Overcast  
Wind Chill: 12°   Ceiling: 4500
Heat Index: 12°   Visibility: 7mi
Dew Point:   Wind: 10mph
Humidity: 83%   Direction: 210°SSW
Pressure: 29.93"   Gusts: NA
Location:  40.78°N, 83.82°W
Report Text: KAOH 251153Z AUTO 21009KT 7SM BKN045 OVC055 12/09 A2993 RMK AO2 SLP134 T01220094 10122 20106 58008
Loading
Personal Weather Stations






























Interactive Weather Map
Tropical Storm Tracking
New forecast layout! Learn more

10-Day Weather Forecast

Advertisements
Track Severe Weather on mobile